Time;durP1;ratioP1;P1;durP2;ratioP2;P2;SDS_P1;SDS_P2;PMS_P1;PMS_P2;Temp;Humidity;BMP_temperature;BMP_pressure;BME280_temperature;BME280_humidity;BME280_pressure;Samples;Min_cycle;Max_cycle;Signal;HPM_P1;HPM_P2
2022/02/27 00:05:00;;;;;;;;;;;0.20;99.90;;;-1.05;97.69;96901.72;10438158;28;2206;-69
2022/02/27 00:10:03;;;;;;;;;;;0.10;99.90;;;-1.13;97.71;96903.41;10437623;28;2276;-69
2022/02/27 00:15:07;;;;;;;;;;;0.10;99.90;;;-1.08;98.21;96908.19;10429573;28;1905;-69
2022/02/27 00:20:10;;;;;;;;;;;0.10;99.90;;;-1.09;97.67;96895.94;10430530;28;1820;-69
2022/02/27 00:25:14;;;;;;;;;;;0.30;99.90;;;-1.04;97.68;96906.81;10427937;28;1905;-69
2022/02/27 00:30:18;;;;;;;;;;;0.10;99.90;;;-1.06;98.50;96916.72;10430146;28;2377;-69
2022/02/27 00:35:21;;;;;;;;;;;0.10;99.90;;;-1.00;98.33;96916.03;10431426;28;2028;-69
2022/02/27 00:40:25;;;;;;;;;;;0.10;99.90;;;-0.96;97.59;96921.78;10432377;28;1846;-69
2022/02/27 00:45:28;;;;;;;;;;;0.00;99.90;;;-1.13;98.64;96916.59;10431028;28;1850;-68
2022/02/27 00:50:32;;;;;;;;;;;0.00;99.90;;;-1.19;99.67;96914.66;10434831;28;1804;-70
2022/02/27 00:55:35;;;;;;;;;;;-0.10;99.90;;;-1.31;100.00;96908.09;10431470;28;1910;-69
2022/02/27 01:00:38;;;;;;;;;;;-0.20;99.90;;;-1.32;100.00;96906.47;10428138;28;1848;-69
2022/02/27 01:05:42;;;;;;;;;;;-0.30;99.90;;;-1.49;100.00;96908.31;10426684;28;1860;-69
2022/02/27 01:10:45;;;;;;;;;;;-0.20;99.90;;;-1.48;100.00;96899.41;10451513;28;1940;-68
2022/02/27 01:15:49;;;;;;;;;;;;;;;-1.50;100.00;96895.31;10430774;28;1890;-69
2022/02/27 01:20:52;;;;;;;;;;;-0.40;99.90;;;-1.61;100.00;96899.13;10424314;28;1833;-68
2022/02/27 01:25:55;;;;;;;;;;;-0.60;99.90;;;-1.66;100.00;96904.91;10433155;28;1794;-69
2022/02/27 01:30:58;;;;;;;;;;;-0.60;99.90;;;-1.69;100.00;96907.09;10430874;28;1923;-69
2022/02/27 01:36:02;;;;;;;;;;;;;;;-1.69;100.00;96897.34;10425807;28;1910;-70
2022/02/27 01:41:05;;;;;;;;;;;;;;;-1.70;100.00;96898.34;10440986;28;1717;-69
2022/02/27 01:46:10;;;;;;;;;;;;;;;-1.52;100.00;96892.88;10432642;28;1833;-69
2022/02/27 01:51:14;;;;;;;;;;;;;;;-1.47;100.00;96892.34;10435493;28;1995;-69
2022/02/27 01:56:18;;;;;;;;;;;;;;;-1.65;100.00;96890.75;10426229;28;1997;-69
2022/02/27 02:01:21;;;;;;;;;;;;;;;-1.75;100.00;96884.84;10436574;28;2213;-69
2022/02/27 02:06:27;;;;;;;;;;;;;;;-1.74;100.00;96889.13;10435709;28;1903;-69
2022/02/27 02:11:31;;;;;;;;;;;;;;;-1.75;100.00;96886.66;10438482;28;1974;-69
2022/02/27 02:16:35;;;;;;;;;;;;;;;-1.85;100.00;96884.22;10435251;28;1985;-70
2022/02/27 02:21:39;;;;;;;;;;;;;;;-1.93;100.00;96879.78;10428895;28;1886;-69
2022/02/27 02:26:43;;;;;;;;;;;;;;;-1.97;100.00;96886.41;10435945;28;1963;-69
2022/02/27 02:31:47;;;;;;;;;;;;;;;-2.02;100.00;96880.00;10434846;28;2374;-69
2022/02/27 02:36:51;;;;;;;;;;;;;;;-2.05;100.00;96872.41;10441538;28;2300;-69
2022/02/27 02:41:55;;;;;;;;;;;;;;;-2.12;100.00;96864.34;10445848;28;1940;-69
2022/02/27 02:47:01;;;;;;;;;;;;;;;-2.09;100.00;96865.84;10439019;28;2120;-69
2022/02/27 02:52:04;;;;;;;;;;;;;;;-2.19;100.00;96858.09;10437375;28;1797;-69
2022/02/27 02:57:07;;;;;;;;;;;;;;;-2.21;100.00;96868.81;10435550;28;1923;-69
2022/02/27 03:02:11;;;;;;;;;;;;;;;-2.27;100.00;96863.41;10429378;28;2117;-69
2022/02/27 03:07:15;;;;;;;;;;;;;;;-2.33;100.00;96853.53;10432140;28;2278;-69
2022/02/27 03:12:18;;;;;;;;;;;;;;;-2.38;100.00;96856.66;10438168;28;2008;-69
2022/02/27 03:17:21;;;;;;;;;;;;;;;-2.37;100.00;96853.03;10428922;28;1937;-69
2022/02/27 03:22:25;;;;;;;;;;;;;;;-2.42;100.00;96855.31;10434624;28;1966;-69
2022/02/27 03:27:28;;;;;;;;;;;;;;;-2.45;100.00;96853.84;10440092;28;2038;-69
2022/02/27 03:32:31;;;;;;;;;;;;;;;-2.47;100.00;96865.56;10431478;28;2110;-69
2022/02/27 03:37:34;;;;;;;;;;;;;;;-2.50;100.00;96858.78;10435817;28;2069;-69
2022/02/27 03:42:38;;;;;;;;;;;;;;;-2.47;100.00;96863.75;10437222;28;2007;-69
2022/02/27 03:47:42;;;;;;;;;;;;;;;-2.55;100.00;96855.00;10432703;28;1905;-69
2022/02/27 03:52:46;;;;;;;;;;;;;;;-2.53;100.00;96867.03;10437988;28;1979;-69
2022/02/27 03:57:52;;;;;;;;;;;;;;;-2.57;100.00;96860.44;10432318;28;2002;-70
2022/02/27 04:02:55;;;;;;;;;;;;;;;-2.61;100.00;96860.94;10427439;28;1944;-69
2022/02/27 04:08:00;;;;;;;;;;;;;;;-2.62;100.00;96865.38;10431704;28;1928;-69
2022/02/27 04:13:03;;;;;;;;;;;;;;;-2.63;100.00;96868.16;10437549;28;2019;-70
2022/02/27 04:18:07;;;;;;;;;;;;;;;-2.74;100.00;96869.31;10439412;28;2011;-68
2022/02/27 04:23:10;;;;;;;;;;;;;;;-2.74;100.00;96878.03;10428752;28;2004;-68
2022/02/27 04:28:15;;;;;;;;;;;;;;;-2.77;100.00;96862.56;10435029;28;1982;-68
2022/02/27 04:33:18;;;;;;;;;;;;;;;-2.76;100.00;96856.31;10436760;28;1939;-68
2022/02/27 04:38:21;;;;;;;;;;;;;;;-2.78;100.00;96839.88;10426810;28;1955;-69
2022/02/27 04:43:24;;;;;;;;;;;;;;;-2.69;100.00;96847.78;10466349;22;2061;-72
2022/02/27 04:48:28;;;;;;;;;;;;;;;-2.66;100.00;96858.00;10450849;28;2362;-71
2022/02/27 04:53:31;;;;;;;;;;;;;;;-2.62;100.00;96854.03;10452772;28;2143;-71
2022/02/27 04:58:34;;;;;;;;;;;;;;;-2.59;100.00;96853.72;10445852;28;2080;-71
2022/02/27 05:03:38;;;;;;;;;;;;;;;-2.67;100.00;96859.81;10429178;28;1954;-72
2022/02/27 05:08:41;;;;;;;;;;;;;;;-2.64;100.00;96845.47;10418435;28;2045;-72
2022/02/27 05:13:47;;;;;;;;;;;;;;;-2.72;100.00;96852.38;10452880;28;1984;-72
2022/02/27 05:18:50;;;;;;;;;;;;;;;-2.82;100.00;96849.09;10468641;28;1915;-72
2022/02/27 05:23:54;;;;;;;;;;;;;;;-2.78;100.00;96846.97;10475179;28;1978;-70
2022/02/27 05:28:57;;;;;;;;;;;;;;;-2.91;100.00;96852.72;10444130;28;1969;-71
2022/02/27 05:34:00;;;;;;;;;;;;;;;-2.89;100.00;96863.06;10446534;28;1821;-70
2022/02/27 05:39:03;;;;;;;;;;;;;;;-2.99;100.00;96871.09;10438956;28;1998;-72
2022/02/27 05:44:07;;;;;;;;;;;;;;;-2.89;100.00;96863.06;10448039;28;2042;-69
2022/02/27 05:49:10;;;;;;;;;;;;;;;-2.91;100.00;96871.13;10447772;28;1985;-71
2022/02/27 05:54:14;;;;;;;;;;;;;;;-2.94;100.00;96883.78;10449225;28;1889;-70
2022/02/27 05:59:17;;;;;;;;;;;;;;;-2.92;100.00;96887.91;10441873;28;1922;-70
2022/02/27 06:04:21;;;;;;;;;;;;;;;-3.03;100.00;96901.34;10429760;28;1979;-71
2022/02/27 06:09:24;;;;;;;;;;;;;;;-3.09;100.00;96905.44;10445369;28;2067;-71
2022/02/27 06:14:28;;;;;;;;;;;;;;;-3.15;100.00;96900.00;10438135;28;1892;-73
2022/02/27 06:19:33;;;;;;;;;;;;;;;-3.17;100.00;96901.97;10448370;28;1989;-72
2022/02/27 06:24:36;;;;;;;;;;;;;;;-3.09;100.00;96902.81;10441570;28;1913;-73
2022/02/27 06:29:40;;;;;;;;;;;;;;;-2.95;100.00;96909.25;10435208;28;2028;-71
2022/02/27 06:34:45;;;;;;;;;;;;;;;-2.90;100.00;96914.88;10449472;28;1985;-72
2022/02/27 06:39:48;;;;;;;;;;;;;;;-2.69;100.00;96911.75;10431993;28;2339;-72
2022/02/27 06:44:52;;;;;;;;;;;;;;;-2.51;100.00;96917.69;10438065;28;1944;-72
2022/02/27 06:49:55;;;;;;;;;;;;;;;-2.38;100.00;96917.22;10432473;28;1898;-73
2022/02/27 06:54:58;;;;;;;;;;;;;;;-2.36;100.00;96922.31;10451532;28;2349;-73
2022/02/27 07:00:02;;;;;;;;;;;;;;;-2.33;100.00;96917.56;10443791;28;2011;-72
2022/02/27 07:05:05;;;;;;;;;;;;;;;-2.29;100.00;96918.88;10443188;28;1881;-74
2022/02/27 07:10:09;;;;;;;;;;;;;;;-2.15;100.00;96927.09;10429703;28;2011;-72
2022/02/27 07:15:12;;;;;;;;;;;;;;;-2.19;100.00;96929.22;10449380;28;1969;-72
2022/02/27 07:20:15;;;;;;;;;;;;;;;-2.10;100.00;96943.22;10428550;28;1906;-73
2022/02/27 07:25:19;;;;;;;;;;;;;;;-2.04;100.00;96945.19;10431814;28;2056;-72
2022/02/27 07:30:23;;;;;;;;;;;;;;;-1.86;100.00;96948.47;10446559;28;1876;-72
2022/02/27 07:35:26;;;;;;;;;;;;;;;-1.73;100.00;96955.84;10431285;28;1825;-72
2022/02/27 07:40:29;;;;;;;;;;;;;;;-1.58;100.00;96959.47;10425849;28;2120;-72
2022/02/27 07:45:33;;;;;;;;;;;;;;;-1.42;100.00;96966.50;10446617;28;1831;-72
2022/02/27 07:50:36;;;;;;;;;;;;;;;-1.20;100.00;96954.41;10426381;28;1786;-72
2022/02/27 07:55:39;;;;;;;;;;;;;;;-1.01;100.00;96961.09;10429394;28;1896;-72
2022/02/27 08:00:43;;;;;;;;;;;;;;;-0.81;100.00;96954.38;10468263;28;1988;-72
2022/02/27 08:05:47;;;;;;;;;;;;;;;-0.62;100.00;96950.47;10429279;28;2033;-70
2022/02/27 08:10:50;;;;;;;;;;;;;;;-0.46;100.00;96954.81;10425943;28;2122;-71
2022/02/27 08:15:57;;;;;;;;;;;;;;;-0.18;100.00;96963.88;10447956;28;2035;-73
2022/02/27 08:21:01;;;;;;;;;;;;;;;0.10;99.05;96955.38;10427206;28;1989;-72
2022/02/27 08:26:04;;;;;;;;;;;;;;;0.20;97.19;96953.31;10446975;28;1869;-72
2022/02/27 08:31:08;;;;;;;;;;;;;;;0.39;95.74;96955.44;10430166;28;1820;-73
2022/02/27 08:36:15;;;;;;;;;;;;;;;0.53;93.03;96961.75;10442768;28;1841;-74
2022/02/27 08:41:19;;;;;;;;;;;;;;;0.58;92.70;96959.38;10443096;28;2088;-71
2022/02/27 08:46:23;;;;;;;;;;;;;;;0.74;91.56;96947.78;10434529;28;1817;-73
2022/02/27 08:51:26;;;;;;;;;;;;;;;0.88;88.37;96954.88;10417246;28;1906;-73
2022/02/27 08:56:29;;;;;;;;;;;;;;;0.96;88.33;96954.81;10429829;28;1872;-73
2022/02/27 09:01:32;;;;;;;;;;;;;;;1.61;87.29;96956.56;10446372;28;1914;-73
2022/02/27 09:06:36;;;;;;;;;;;;;;;1.57;85.38;96952.66;10426774;28;1864;-73
2022/02/27 09:11:40;;;;;;;;;;;;;;;1.56;82.86;96955.50;10421957;28;2092;-72
2022/02/27 09:16:43;;;;;;;;;;;;;;;1.48;79.89;96951.13;10442764;28;1861;-73
2022/02/27 09:21:46;;;;;;;;;;;;;;;1.62;76.52;96944.97;10438698;28;1910;-72
2022/02/27 09:26:50;;;;;;;;;;;;;;;1.55;75.16;96930.81;10446078;28;1853;-71
2022/02/27 09:31:54;;;;;;;;;;;;;;;1.67;73.28;96939.09;10436143;28;1960;-72
2022/02/27 09:36:58;;;;;;;;;;;;;;;1.73;74.04;96938.34;10455919;28;1872;-74
2022/02/27 09:42:01;;;;;;;;;;;;;;;1.82;70.94;96946.97;10460011;28;1914;-73
2022/02/27 09:47:05;;;;;;;;;;;;;;;2.03;66.85;96932.88;10443207;28;1858;-72
2022/02/27 09:52:09;;;;;;;;;;;;;;;2.13;67.58;96944.81;10420672;28;1995;-73
2022/02/27 09:57:12;;;;;;;;;;;;;;;2.20;67.89;96942.22;10425851;28;1965;-70
2022/02/27 10:02:16;;;;;;;;;;;;;;;2.38;66.96;96941.75;10447334;28;1922;-74
2022/02/27 10:07:20;;;;;;;;;;;;;;;2.76;62.49;96944.84;10444103;28;1817;-71
2022/02/27 10:12:24;;;;;;;;;;;;;;;3.07;58.53;96936.44;10453852;28;2036;-70
2022/02/27 10:17:27;;;;;;;;;;;;;;;3.28;60.88;96921.38;10440963;28;1978;-71
2022/02/27 10:22:31;;;;;;;;;;;;;;;2.69;63.63;96917.44;10454015;28;1918;-74
2022/02/27 10:27:35;;;;;;;;;;;;;;;2.66;62.22;96923.94;10430524;28;1923;-72
2022/02/27 10:32:40;;;;;;;;;;;;;;;2.55;65.46;96915.72;10450536;28;1884;-71
2022/02/27 10:37:44;;;;;;;;;;;;;;;2.92;61.46;96917.13;10457757;28;1892;-73
2022/02/27 10:42:50;;;;;;;;;;;;;;;2.98;60.85;96908.38;10442329;28;1973;-73
2022/02/27 10:47:54;;;;;;;;;;;;;;;3.52;59.66;96896.91;10442177;28;1833;-73
2022/02/27 10:52:58;;;;;;;;;;;;;;;3.20;56.96;96904.59;10433173;28;1882;-76
2022/02/27 10:58:02;;;;;;;;;;;;;;;3.17;56.01;96896.19;10447518;28;1910;-73
2022/02/27 11:03:05;;;;;;;;;;;;;;;3.49;55.14;96897.28;10429466;28;2090;-73
2022/02/27 11:08:10;;;;;;;;;;;;;;;3.60;54.58;96894.06;10431375;28;1817;-71
2022/02/27 11:13:14;;;;;;;;;;;;;;;3.15;54.87;96898.22;10451054;28;1865;-72
2022/02/27 11:18:17;;;;;;;;;;;;;;;2.96;56.37;96881.19;10455413;28;1952;-73
2022/02/27 11:23:23;;;;;;;;;;;;;;;3.41;55.79;96884.19;10431453;28;1891;-73
2022/02/27 11:28:28;;;;;;;;;;;;;;;3.49;55.10;96868.06;10425829;28;1898;-72
2022/02/27 11:33:32;;;;;;;;;;;;;;;3.46;56.03;96865.81;10440602;28;1829;-74
2022/02/27 11:38:38;;;;;;;;;;;;;;;3.14;53.32;96873.50;10469569;28;1953;-73
2022/02/27 11:43:43;;;;;;;;;;;;;;;3.04;54.39;96870.38;10441947;28;1820;-74
2022/02/27 11:48:47;;;;;;;;;;;;;;;3.16;54.10;96860.81;10441917;28;2064;-71
2022/02/27 11:53:56;;;;;;;;;;;;;;;3.39;52.90;96846.38;10429264;28;1936;-74
2022/02/27 11:59:00;;;;;;;;;;;;;;;3.43;51.95;96847.59;10423251;28;1985;-76
2022/02/27 12:04:04;;;;;;;;;;;;;;;3.64;50.63;96844.78;10440458;28;2017;-74
2022/02/27 12:09:07;;;;;;;;;;;;;;;4.04;49.36;96836.78;10425291;28;1913;-73
2022/02/27 12:14:11;;;;;;;;;;;;;;;4.79;47.53;96818.59;10427097;28;1899;-72
2022/02/27 12:19:15;;;;;;;;;;;;;;;4.25;48.68;96828.56;10431956;28;2042;-73
2022/02/27 12:24:19;;;;;;;;;;;;;;;3.82;50.43;96833.53;10498466;22;2016;-69
2022/02/27 12:29:22;;;;;;;;;;;;;;;3.97;50.80;96826.16;10484637;28;2027;-69
2022/02/27 12:34:27;;;;;;;;;;;;;;;3.68;52.16;96827.38;10454225;28;2030;-69
2022/02/27 12:39:32;;;;;;;;;;;;;;;3.56;52.52;96826.34;10436201;28;1899;-71
2022/02/27 12:44:36;;;;;;;;;;;;;;;3.58;53.00;96820.84;10437530;28;1913;-69
2022/02/27 12:55:01;;;;;;;;;;;;;;;3.76;50.69;96818.41;10432535;28;1864;-70
2022/02/27 13:00:06;;;;;;;;;;;;;;;3.71;48.70;96816.34;10453425;28;1991;-73
2022/02/27 13:05:13;;;;;;;;;;;;;;;3.74;50.90;96820.41;10438542;28;1852;-70
2022/02/27 13:10:17;;;;;;;;;;;;;;;3.62;51.60;96820.22;10433948;28;1812;-72
2022/02/27 13:15:20;;;;;;;;;;;;;;;3.71;51.44;96812.88;10451884;28;1799;-69
2022/02/27 13:20:25;;;;;;;;;;;;;;;3.41;51.60;96805.28;10442661;28;1970;-69
2022/02/27 13:25:29;;;;;;;;;;;;;;;3.36;51.16;96804.25;10442875;28;1871;-70
2022/02/27 13:30:32;;;;;;;;;;;;;;;3.47;49.60;96803.66;10444055;28;1899;-69
2022/02/27 13:35:36;;;;;;;;;;;;;;;3.47;49.98;96799.16;10438686;28;1894;-70
2022/02/27 13:40:41;;;;;;;;;;;;;;;3.54;49.86;96799.16;10438775;28;1894;-70
2022/02/27 13:45:45;;;;;;;;;;;;;;;3.69;48.86;96798.94;10465023;28;1799;-70
2022/02/27 13:50:49;;;;;;;;;;;;;;;3.62;46.60;96800.78;10451670;28;1838;-71
2022/02/27 13:55:53;;;;;;;;;;;;;;;3.48;48.29;96789.34;10441323;28;1832;-71
2022/02/27 14:00:57;;;;;;;;;;;;;;;3.61;49.64;96789.34;10453376;28;1902;-71
2022/02/27 14:06:01;;;;;;;;;;;;;;;3.69;50.84;96786.50;10445537;28;1841;-71
2022/02/27 14:11:05;;;;;;;;;;;;;;;3.51;51.09;96780.97;10444190;28;1853;-71
2022/02/27 14:16:10;;;;;;;;;;;;;;;3.59;51.54;96794.03;10446495;28;1856;-70
2022/02/27 14:21:13;;;;;;;;;;;;;;;3.47;49.46;96798.34;10453561;28;1910;-70
2022/02/27 14:26:17;;;;;;;;;;;;;;;3.37;50.25;96787.28;10447077;28;1831;-69
2022/02/27 14:31:21;;;;;;;;;;;;;;;3.52;50.63;96782.59;10446785;28;1972;-70
2022/02/27 14:36:27;;;;;;;;;;;;;;;3.58;48.44;96786.28;10472732;28;1788;-69
2022/02/27 14:41:30;;;;;;;;;;;;;;;3.42;46.99;96774.19;10451747;28;1886;-71
2022/02/27 14:46:34;;;;;;;;;;;;;;;3.30;47.17;96781.13;10467126;28;1860;-71
2022/02/27 14:51:37;;;;;;;;;;;;;;;3.31;49.95;96782.75;10450404;28;1874;-70
2022/02/27 14:56:41;;;;;;;;;;;;;;;3.39;50.30;96779.94;10452549;28;1803;-70
2022/02/27 15:01:46;;;;;;;;;;;;;;;3.30;50.61;96786.44;10444956;28;1918;-69
2022/02/27 15:06:49;;;;;;;;;;;;;;;3.25;50.65;96784.44;10449776;28;1866;-71
2022/02/27 15:11:54;;;;;;;;;;;;;;;3.17;49.70;96795.22;10443046;28;1860;-71
2022/02/27 15:16:57;;;;;;;;;;;;;;;3.19;49.38;96783.38;10447920;28;1766;-70
2022/02/27 15:22:01;;;;;;;;;;;;;;;3.13;49.74;96784.19;10448446;28;2206;-70
2022/02/27 15:27:05;;;;;;;;;;;;;;;3.12;50.83;96785.22;10443344;28;1807;-69
2022/02/27 15:32:08;;;;;;;;;;;;;;;3.01;50.75;96798.28;10456211;28;1938;-70
2022/02/27 15:37:13;;;;;;;;;;;;;;;2.95;50.33;96803.34;10440759;28;1882;-70
2022/02/27 15:42:16;;;;;;;;;;;;;;;2.95;49.15;96798.03;10437248;28;1974;-70
2022/02/27 15:47:20;;;;;;;;;;;;;;;2.93;48.45;96796.63;10446352;28;1852;-70
2022/02/27 15:52:23;;;;;;;;;;;;;;;2.87;47.68;96800.91;10442345;28;1963;-70
2022/02/27 15:57:27;;;;;;;;;;;;;;;2.87;47.74;96805.38;10439219;28;1755;-70
2022/02/27 16:02:30;;;;;;;;;;;;;;;2.83;47.73;96807.59;10448703;28;1981;-71
2022/02/27 16:07:34;;;;;;;;;;;;;;;2.75;47.05;96799.81;10435795;28;1865;-70
2022/02/27 16:12:38;;;;;;;;;;;;;;;2.66;47.35;96814.28;10442636;28;1867;-69
2022/02/27 16:17:42;;;;;;;;;;;;;;;2.58;47.87;96815.28;10444550;28;1892;-70
2022/02/27 16:22:46;;;;;;;;;;;;;;;2.54;48.20;96818.50;10456172;28;2005;-69
2022/02/27 16:27:53;;;;;;;;;;;;;;;2.49;48.28;96815.66;10441870;28;1913;-70
2022/02/27 16:32:57;;;;;;;;;;;;;;;2.43;48.78;96814.59;10445312;28;1841;-68
2022/02/27 16:38:00;;;;;;;;;;;;;;;2.25;49.49;96817.78;10442430;28;1788;-69
2022/02/27 16:43:04;;;;;;;;;;;;;;;2.18;50.62;96832.84;10445504;28;1923;-68
2022/02/27 16:48:08;;;;;;;;;;;;;;;2.07;52.25;96836.00;10432783;28;1882;-71
2022/02/27 16:53:12;;;;;;;;;;;;;;;2.04;54.50;96844.38;10467449;28;1849;-69
2022/02/27 16:58:16;;;;;;;;;;;;;;;1.93;56.01;96845.72;10426859;28;1854;-71
2022/02/27 17:03:19;;;;;;;;;;;;;;;1.79;57.45;96850.09;10449657;28;1914;-69
2022/02/27 17:08:23;;;;;;;;;;;;;;;1.67;58.38;96851.63;10443254;28;1821;-70
2022/02/27 17:13:27;;;;;;;;;;;;;;;1.58;58.49;96853.56;10452249;28;1957;-70
2022/02/27 17:18:30;;;;;;;;;;;;;;;1.54;58.38;96852.34;10448347;28;1930;-69
2022/02/27 17:23:34;;;;;;;;;;;;;;;1.37;59.56;96852.78;10460120;28;1973;-68
2022/02/27 17:28:38;;;;;;;;;;;;;;;1.33;59.80;96862.91;10451696;28;1768;-71
2022/02/27 17:33:41;;;;;;;;;;;;;;;1.18;60.30;96864.81;10449201;28;1823;-73
2022/02/27 17:38:48;;;;;;;;;;;;;;;1.12;60.28;96871.69;10441355;28;1959;-69
2022/02/27 17:43:52;;;;;;;;;;;;;;;1.10;60.76;96868.41;10460482;28;1979;-69
2022/02/27 17:48:55;;;;;;;;;;;2.00;99.90;;;0.89;62.51;96871.84;10453317;28;1845;-69
2022/02/27 17:53:59;;;;;;;;;;;2.00;99.90;;;0.86;62.67;96877.50;10447697;28;2198;-70
2022/02/27 17:59:02;;;;;;;;;;;1.90;99.90;;;0.78;62.54;96885.53;10492063;28;1815;-70
2022/02/27 18:04:06;;;;;;;;;;;1.90;99.90;;;0.77;62.94;96873.31;10456155;28;1930;-70
2022/02/27 18:09:09;;;;;;;;;;;1.90;99.90;;;0.75;63.18;96872.66;10446759;28;1794;-71
2022/02/27 18:14:13;;;;;;;;;;;1.80;99.90;;;0.59;64.81;96871.06;10455898;28;2142;-69
2022/02/27 18:19:16;;;;;;;;;;;1.70;99.90;;;0.62;64.38;96883.09;10441243;28;2222;-69
2022/02/27 18:24:20;;;;;;;;;;;1.70;99.90;;;0.51;65.12;96879.09;10451926;28;1996;-68
2022/02/27 18:29:24;;;;;;;;;;;1.60;99.90;;;0.43;65.44;96880.00;10448437;28;2145;-69
2022/02/27 18:34:27;;;;;;;;;;;1.50;99.90;;;0.29;66.71;96886.09;10438709;28;2145;-71
2022/02/27 18:39:31;;;;;;;;;;;1.40;99.90;;;0.17;67.35;96877.78;10436410;28;1829;-69
2022/02/27 18:44:34;;;;;;;;;;;1.40;99.90;;;0.15;67.66;96876.34;10455708;28;1987;-70
2022/02/27 18:49:38;;;;;;;;;;;1.30;99.90;;;0.11;67.81;96881.16;10441652;28;1949;-69
2022/02/27 18:54:42;;;;;;;;;;;1.30;99.90;;;0.09;68.25;96890.28;10451245;28;2078;-69
2022/02/27 18:59:45;;;;;;;;;;;1.20;99.90;;;-0.06;69.58;96877.06;10433326;28;2242;-70
2022/02/27 19:04:48;;;;;;;;;;;1.10;99.90;;;-0.15;70.03;96871.00;10452083;28;1910;-69
2022/02/27 19:09:52;;;;;;;;;;;1.00;99.90;;;-0.22;70.75;96882.47;10444422;28;1839;-70
2022/02/27 19:14:56;;;;;;;;;;;0.90;99.90;;;-0.26;70.25;96882.00;10445009;28;1885;-70
2022/02/27 19:19:59;;;;;;;;;;;0.90;99.90;;;-0.35;70.88;96883.09;10432978;28;2106;-71
2022/02/27 19:25:02;;;;;;;;;;;0.80;99.90;;;-0.52;72.17;96892.13;10438299;28;1926;-69
2022/02/27 19:30:07;;;;;;;;;;;0.70;99.90;;;-0.62;74.66;96884.47;10445635;28;1935;-70
2022/02/27 19:35:11;;;;;;;;;;;0.70;99.90;;;-0.49;73.44;96882.03;10460078;28;1822;-68
2022/02/27 19:40:16;;;;;;;;;;;0.50;99.90;;;-0.34;71.84;96879.44;10432673;28;1975;-70
2022/02/27 19:45:19;;;;;;;;;;;0.70;99.90;;;-0.50;72.66;96883.03;10456053;28;1876;-69
2022/02/27 19:50:23;;;;;;;;;;;0.70;99.90;;;-0.67;74.00;96884.97;10437346;28;1795;-70
2022/02/27 19:55:26;;;;;;;;;;;0.60;99.90;;;-0.57;73.55;96884.75;10437001;28;1842;-70
2022/02/27 20:00:29;;;;;;;;;;;0.60;99.90;;;-0.60;74.21;96875.34;10446114;28;1981;-70
2022/02/27 20:05:33;;;;;;;;;;;0.50;99.90;;;-0.61;73.45;96873.72;10442081;28;1847;-70
2022/02/27 20:10:43;;;;;;;;;;;0.50;99.90;;;-0.61;73.83;96865.78;10471739;22;1899;-72
2022/02/27 20:15:49;;;;;;;;;;;0.50;99.90;;;-0.59;73.93;96858.50;10458264;28;1887;-73
2022/02/27 20:20:53;;;;;;;;;;;0.40;99.90;;;-0.71;74.39;96862.56;10421898;28;1891;-74
2022/02/27 20:25:58;;;;;;;;;;;0.40;99.90;;;-0.76;73.98;96851.72;10415972;28;1855;-74
2022/02/27 20:31:02;;;;;;;;;;;0.30;99.90;;;-0.76;74.90;96854.34;10419576;28;1957;-74
2022/02/27 20:36:06;;;;;;;;;;;0.30;99.90;;;-0.82;74.37;96847.97;10429212;28;1691;-71
2022/02/27 20:41:10;;;;;;;;;;;0.30;99.90;;;-0.86;74.81;96859.84;10411263;28;1983;-74
2022/02/27 20:46:13;;;;;;;;;;;0.30;99.90;;;-0.98;75.55;96860.44;10419834;28;1958;-74
2022/02/27 20:51:17;;;;;;;;;;;0.20;99.90;;;-1.00;75.14;96862.44;10428398;28;1790;-73
2022/02/27 20:56:21;;;;;;;;;;;0.10;99.90;;;-1.04;75.47;96866.41;10417420;28;1868;-73
2022/02/27 21:01:27;;;;;;;;;;;0.00;99.90;;;-0.99;75.42;96877.28;10419015;28;1914;-72
2022/02/27 21:06:31;;;;;;;;;;;0.10;99.90;;;-1.07;74.89;96861.50;10416366;28;1878;-71
2022/02/27 21:11:34;;;;;;;;;;;0.00;99.90;;;-1.06;74.88;96869.22;10416185;28;1898;-71
2022/02/27 21:16:37;;;;;;;;;;;0.00;99.90;;;-1.12;75.77;96864.66;10422674;28;1796;-73
2022/02/27 21:21:40;;;;;;;;;;;-0.10;99.90;;;-1.16;75.57;96874.72;10436191;28;1894;-72
2022/02/27 21:26:43;;;;;;;;;;;0.00;99.90;;;-1.13;75.01;96863.81;10427014;28;2016;-73
2022/02/27 21:31:46;;;;;;;;;;;-0.10;99.90;;;-1.26;77.05;96866.22;10434943;28;2116;-71
2022/02/27 21:36:49;;;;;;;;;;;-0.10;99.90;;;-1.30;76.51;96869.34;10433518;28;1812;-74
2022/02/27 21:41:53;;;;;;;;;;;-0.20;99.90;;;-1.22;77.01;96861.38;10421388;28;1938;-72
2022/02/27 21:46:56;;;;;;;;;;;-0.20;99.90;;;-1.34;78.61;96855.69;10434202;28;1804;-71
2022/02/27 21:52:00;;;;;;;;;;;-0.30;99.90;;;-1.46;79.33;96847.34;10422399;28;1774;-72
2022/02/27 21:57:05;;;;;;;;;;;-0.30;99.90;;;-1.55;79.78;96837.00;10420499;28;1826;-71
2022/02/27 22:02:08;;;;;;;;;;;-0.40;99.90;;;-1.46;79.28;96846.53;10433743;28;2294;-72
2022/02/27 22:07:12;;;;;;;;;;;-0.50;99.90;;;-1.53;80.01;96840.28;10437230;28;1895;-72
2022/02/27 22:12:15;;;;;;;;;;;-0.50;99.90;;;-1.57;79.74;96839.81;10429485;28;2286;-75
2022/02/27 22:17:19;;;;;;;;;;;-0.40;99.90;;;-1.61;80.64;96856.13;10427362;28;1845;-73
2022/02/27 22:22:24;;;;;;;;;;;-0.50;99.90;;;-1.63;81.40;96859.78;10424340;28;2043;-72
2022/02/27 22:27:27;;;;;;;;;;;-0.50;99.90;;;-1.64;81.76;96850.22;10414561;28;1822;-73
2022/02/27 22:32:30;;;;;;;;;;;-0.60;99.90;;;-1.70;82.72;96845.63;10443644;28;1948;-71
2022/02/27 22:37:36;;;;;;;;;;;-0.60;99.90;;;-1.80;83.87;96844.16;10446380;28;1691;-72
2022/02/27 22:42:39;;;;;;;;;;;-0.70;99.90;;;-1.80;83.68;96845.00;10430214;28;1985;-71
2022/02/27 22:47:43;;;;;;;;;;;-0.60;99.90;;;-1.83;84.42;96837.44;10421491;28;1776;-72
2022/02/27 22:52:47;;;;;;;;;;;-0.80;99.90;;;-1.91;84.39;96835.66;10430076;28;1924;-72
2022/02/27 22:57:50;;;;;;;;;;;-0.80;99.90;;;-1.96;85.07;96837.97;10415294;28;1812;-74
2022/02/27 23:02:54;;;;;;;;;;;-0.90;99.90;;;-2.03;85.48;96833.56;10426750;28;1977;-72
2022/02/27 23:13:18;;;;;;;;;;;-1.00;99.90;;;-2.11;85.65;96829.09;10424396;28;1832;-72
2022/02/27 23:18:21;;;;;;;;;;;-1.00;99.90;;;-2.23;86.06;96827.81;10413723;28;1787;-73
2022/02/27 23:23:25;;;;;;;;;;;-1.10;99.90;;;-2.18;85.18;96826.31;10422966;28;2139;-73
2022/02/27 23:28:27;;;;;;;;;;;-1.10;99.90;;;-2.23;85.89;96823.41;10418790;28;1770;-71
2022/02/27 23:33:31;;;;;;;;;;;-1.20;99.90;;;-2.26;85.15;96839.50;10425718;28;1853;-71
2022/02/27 23:38:35;;;;;;;;;;;-1.20;99.90;;;-2.35;86.01;96819.47;10417394;28;1726;-72
2022/02/27 23:43:39;;;;;;;;;;;-1.20;99.90;;;-2.39;85.51;96820.78;10420964;28;2182;-74
2022/02/27 23:48:42;;;;;;;;;;;-1.30;99.90;;;-2.37;84.89;96826.69;10416764;28;1941;-71
2022/02/27 23:53:45;;;;;;;;;;;-1.20;99.90;;;-2.37;84.87;96836.41;10423738;28;1847;-70
2022/02/27 23:58:53;;;;;;;;;;;-1.30;99.90;;;-2.53;85.79;96832.81;10422510;28;1788;-73
